Haddon, Indiana
Current Conditions -  °F | °C
As of 5:35 AM on Monday 20 Oct 2014 (Local Time) from KRSV Reporting Station
Overcast Overcast  
Wind Chill: 51°   Ceiling: 10000
Heat Index: 51°   Visibility: 10mi
Dew Point: 48°   Wind: 7mph
Humidity: 90%   Direction: 210°SSW
Pressure: 30"   Gusts: NA
Location:  38.9636°N, 87.3568°W
Report Text: KRSV 200935Z AUTO 21006KT 10SM OVC100 11/09 A3000 RMK AO2 T01050089
Loading
Personal Weather Stations






























Interactive Weather Map
Tropical Storm Tracking
New forecast layout! Learn more

10-Day Weather Forecast

Advertisements
Track Severe Weather on mobile